Date,TemperatureHighF,TemperatureAvgF,TemperatureLowF,DewpointHighF,DewpointAvgF,DewpointLowF,HumidityHigh,HumidityAvg,HumidityLow,PressureMaxIn,PressureMinIn,WindSpeedMaxMPH,WindSpeedAvgMPH,GustSpeedMaxMPH,PrecipitationSumIn
2013-1-1,50.4,48.1,43.9,47.8,39.0,26.8,93,73,45,30.09,29.94,3,0,7,0.20
2013-1-2,49.1,47.0,43.9,47.2,43.2,38.2,93,87,73,30.15,29.88,2,0,9,0.20
2013-1-3,44.2,40.7,30.0,38.7,35.7,26.1,89,82,74,30.27,30.09,2,0,7,0.00
2013-1-4,51.6,35.8,25.5,39.9,24.1,17.2,92,66,36,30.33,30.21,5,0,10,0.00
2013-1-5,50.7,37.9,24.4,32.8,22.5,16.2,80,56,32,30.39,30.21,3,0,7,0.00
2013-1-6,53.1,44.4,37.4,38.8,34.7,27.5,86,69,53,30.21,30.03,3,0,7,0.00
2013-1-7,52.7,40.5,30.0,29.1,25.6,23.3,80,57,36,30.42,30.18,6,0,8,0.00
2013-1-8,56.1,43.9,29.1,38.6,33.0,23.5,85,67,46,30.42,30.33,3,0,5,0.00
2013-1-9,69.1,51.5,36.3,49.0,40.8,32.2,89,69,39,30.44,30.36,3,0,7,0.00
2013-1-10,68.4,55.9,46.9,52.6,43.6,38.5,91,66,36,30.48,30.36,5,0,9,0.00
2013-1-11,52.0,49.5,46.6,48.6,47.0,44.2,93,91,75,30.36,30.15,6,0,9,0.04
2013-1-12,75.2,60.7,49.6,68.4,54.6,47.7,93,82,55,30.15,30.09,3,0,8,0.00
2013-1-13,73.6,62.7,55.2,64.0,55.4,52.1,93,79,53,30.12,30.03,5,0,9,0.00
2013-1-14,68.7,63.4,60.1,62.1,58.2,54.6,91,83,76,30.12,30.06,3,0,7,0.00
2013-1-15,63.1,51.0,45.0,59.8,48.8,43.1,93,92,88,30.18,30.03,3,0,8,0.00
2013-1-16,50.2,46.2,43.0,48.2,44.3,41.1,93,93,93,30.06,29.97,0,0,7,0.20
2013-1-17,49.6,49.6,49.6,47.7,47.7,47.7,93,93,93,30.15,29.77,6,1,13,1.77
2013-1-18,49.8,37.1,28.8,45.6,22.0,10.1,86,60,23,30.48,30.15,7,0,10,0.00
2013-1-19,56.5,38.4,23.9,32.9,15.6,-1.2,76,46,10,30.48,30.15,3,0,9,0.00
2013-1-20,65.7,48.7,34.7,23.9,14.2,-2.0,52,30,7,30.15,30.00,7,0,12,0.00
2013-1-21,63.0,44.6,29.1,32.6,8.9,-14.7,69,32,4,30.06,29.88,6,1,15,0.00
2013-1-22,45.5,35.7,25.3,-5.3,-12.6,-18.4,21,12,6,30.24,29.97,6,1,15,0.00
2013-1-23,45.0,31.1,19.0,13.3,-3.5,-17.1,44,25,7,30.33,30.03,3,0,9,0.00
2013-1-24,47.9,35.7,22.6,25.3,0.5,-20.4,56,27,7,30.48,29.97,6,1,15,0.00
2013-1-25,25.2,22.6,18.0,14.9,1.8,-16.8,66,42,17,30.48,30.09,1,0,6,0.00
2013-1-26,41.5,29.6,21.7,30.4,19.4,13.1,77,66,48,30.33,30.06,2,0,5,0.04
2013-1-27,43.8,34.0,24.1,22.0,16.8,11.7,74,52,28,30.53,30.33,5,0,8,0.00
2013-1-28,48.4,40.3,30.6,38.7,25.9,14.4,72,57,39,30.44,30.24,3,0,6,0.00
2013-1-29,73.6,56.4,42.1,56.0,40.5,35.6,84,60,28,30.24,30.06,5,0,9,0.00
2013-1-30,73.8,66.6,50.7,57.9,47.3,40.0,78,53,31,30.06,29.47,8,4,21,0.71
2013-1-31,52.2,44.2,32.6,41.9,15.9,-4.1,73,37,12,30.03,29.56,8,2,18,0.00
2013-2-1,43.7,36.4,23.4,13.5,-5.0,-18.1,36,19,7,30.33,29.91,8,2,18,0.00
2013-2-2,46.8,33.9,18.9,21.8,-2.0,-18.5,51,27,6,30.36,30.00,6,1,13,0.00
2013-2-3,55.2,41.8,29.3,27.0,12.6,-8.8,69,37,9,30.00,29.83,9,1,18,0.00
2013-2-4,49.8,36.9,24.1,18.1,10.1,3.1,56,36,16,30.12,30.00,5,0,8,0.00
2013-2-5,63.8,47.3,32.4,28.4,19.6,14.3,53,35,18,30.00,29.85,5,1,10,0.00
2013-2-6,64.8,46.6,33.1,40.7,8.4,-41.5,77,36,1,30.21,29.97,6,0,10,0.00
2013-2-7,44.1,40.2,38.1,32.9,22.9,10.4,78,52,31,30.27,29.94,5,0,10,0.39
2013-2-8,60.6,45.8,36.7,42.6,29.0,11.0,80,57,27,30.09,29.83,7,1,13,0.12
2013-2-9,57.9,41.2,27.5,21.0,3.4,-25.3,56,29,3,30.30,30.09,5,0,10,0.00
2013-2-10,57.0,42.6,29.3,37.1,12.0,-10.5,68,35,6,30.42,30.18,6,0,10,0.08
2013-2-11,60.1,55.2,47.4,56.0,48.7,37.7,87,79,69,30.18,29.94,5,1,13,0.12
2013-2-12,61.5,51.5,42.6,42.6,26.1,-7.6,82,48,6,30.09,29.91,6,0,10,0.04
2013-2-13,47.5,44.9,38.3,42.9,38.6,30.7,84,78,63,29.94,29.65,3,0,8,0.12
2013-2-14,52.9,39.8,28.4,36.3,24.0,16.7,81,57,24,30.06,29.85,3,0,7,0.00
2013-2-15,64.6,45.8,30.9,41.2,17.2,-14.7,79,45,4,30.06,29.91,5,0,10,0.00
2013-2-16,46.9,35.2,25.7,29.5,22.4,16.4,75,61,38,29.97,29.83,6,0,13,0.16
2013-2-17,41.7,29.7,20.3,16.4,8.6,-2.2,68,44,19,30.24,29.97,7,1,13,0.12
2013-2-18,55.2,37.1,18.5,18.1,5.0,-10.0,63,33,7,30.36,30.21,6,0,10,0.00
2013-2-19,46.6,39.1,32.4,39.9,26.4,10.9,78,62,34,30.21,29.88,5,0,13,0.20
2013-2-20,55.8,39.8,25.0,27.2,5.2,-21.8,76,32,4,30.09,30.00,5,0,8,0.04
2013-2-21,57.9,42.1,25.3,17.4,1.8,-24.5,45,23,3,30.21,30.06,3,0,8,0.00
2013-2-22,44.6,36.9,34.9,30.0,26.3,10.6,81,68,25,30.30,30.09,5,0,12,0.35
2013-2-23,41.9,38.5,34.9,37.7,34.2,29.6,86,84,81,30.09,29.83,2,0,7,0.63
2013-2-24,66.4,50.1,40.3,49.5,23.9,-17.9,89,51,3,30.00,29.83,7,0,12,0.00
2013-2-25,42.1,38.9,36.5,17.5,13.1,10.3,40,34,31,30.18,30.00,6,1,10,0.00
2013-2-26,47.3,38.8,32.5,42.5,29.8,11.2,86,72,34,30.06,29.56,5,1,12,0.98
2013-2-27,55.6,41.0,32.2,44.1,32.7,21.6,89,75,33,29.80,29.65,6,0,10,0.00
2013-2-28,51.8,40.9,31.6,33.3,17.1,9.2,74,41,21,29.85,29.71,8,1,13,0.00
2013-3-1,48.4,38.3,27.0,25.7,16.0,12.1,64,42,25,29.91,29.85,7,1,12,0.00
2013-3-2,44.6,37.1,29.8,27.4,21.9,14.8,71,54,40,29.91,29.83,5,0,14,0.04
2013-3-3,48.4,34.7,22.6,14.9,6.2,-5.8,57,34,13,29.97,29.85,8,1,13,0.00
2013-3-4,55.9,37.8,20.7,14.5,-1.2,-25.2,55,27,3,30.12,29.97,8,1,12,0.00
2013-3-5,55.4,44.7,35.1,41.6,26.1,12.4,77,49,36,30.03,29.59,6,0,12,0.55
2013-3-6,52.5,41.6,34.0,39.4,15.5,2.7,78,39,14,30.09,29.59,10,4,23,0.00
2013-3-7,56.8,40.8,26.1,23.7,11.0,-0.2,61,34,10,30.24,30.09,7,1,12,0.00
2013-3-8,57.7,42.6,28.4,15.5,4.4,-10.3,44,25,6,30.30,30.15,8,1,15,0.00
2013-3-9,64.4,47.2,33.1,19.1,10.3,-2.0,43,26,7,30.33,30.21,3,0,8,0.00
2013-3-10,67.8,49.9,32.9,30.3,15.5,-1.7,67,33,7,30.30,30.15,5,0,9,0.00
2013-3-11,68.5,52.9,37.9,44.0,25.5,10.0,65,36,21,30.18,29.85,6,1,13,0.04
2013-3-12,73.2,60.2,48.4,60.1,35.6,-2.0,87,51,7,29.97,29.74,8,1,13,0.91
2013-3-13,60.6,45.6,33.3,30.3,6.4,-18.4,65,27,6,30.12,29.94,9,2,18,0.00
2013-3-14,55.9,40.5,27.3,7.4,-5.5,-25.2,34,17,3,30.27,30.12,7,1,20,0.00
2013-3-15,65.8,46.3,26.4,25.4,8.9,-7.0,57,27,6,30.18,29.88,5,1,12,0.00
2013-3-16,80.4,64.2,50.4,30.0,12.7,-34.9,38,20,1,29.88,29.71,7,2,12,0.00
2013-3-17,77.5,58.2,46.2,35.8,26.2,1.8,60,33,7,30.09,29.83,6,1,12,0.00
2013-3-18,46.2,41.9,38.5,39.1,35.7,31.5,88,79,59,30.12,29.85,7,0,10,0.63
2013-3-19,68.9,52.2,40.1,51.8,28.7,9.8,94,54,13,30.03,29.83,8,2,18,0.00
2013-3-20,56.8,47.3,40.1,19.6,9.3,4.7,39,21,17,30.09,29.77,6,0,10,0.00
2013-3-21,51.1,40.0,28.9,19.0,9.3,-0.2,44,29,19,29.94,29.77,9,2,30,0.00
2013-3-22,53.4,37.6,21.9,19.8,10.5,-0.8,56,34,19,30.06,29.94,5,0,10,0.00
2013-3-23,48.2,41.9,36.9,39.4,30.1,18.8,80,64,38,30.03,29.88,2,0,5,0.00
2013-3-24,41.2,39.0,36.9,37.9,35.4,31.3,91,87,78,29.91,29.56,7,1,13,0.94
2013-3-25,49.1,40.6,34.9,40.5,27.2,12.6,92,64,31,29.85,29.56,9,2,19,0.12
2013-3-26,48.0,38.3,27.5,24.4,19.0,14.8,65,47,33,30.15,29.85,7,2,16,0.00
2013-3-27,56.5,40.8,27.7,25.3,16.4,7.8,63,40,20,30.24,30.15,9,1,15,0.00
2013-3-28,58.1,42.9,28.9,23.7,15.0,7.0,55,34,17,30.27,30.18,8,1,13,0.00
2013-3-29,64.0,46.2,26.8,28.6,19.0,14.4,71,39,16,30.33,30.15,7,0,10,0.00
2013-3-30,65.3,53.6,45.1,49.1,37.2,25.7,87,57,32,30.21,30.06,5,0,9,0.20
2013-3-31,71.4,60.2,48.4,57.1,46.4,37.5,89,62,42,30.06,29.80,6,1,14,0.35
2013-4-1,76.6,63.6,54.3,54.3,38.4,20.2,89,49,14,29.94,29.83,8,1,13,0.00
2013-4-2,66.6,53.2,38.8,32.5,27.5,17.8,66,40,19,30.15,29.94,8,0,10,0.00
2013-4-3,63.3,53.2,44.2,25.0,16.5,10.0,39,24,19,30.27,30.09,7,1,12,0.00
2013-4-4,47.8,41.7,37.2,34.8,28.6,16.4,88,63,31,30.27,29.94,6,1,12,0.98
2013-4-5,63.7,48.3,37.0,48.1,37.1,32.8,90,69,36,30.03,29.88,5,0,10,0.00
2013-4-6,70.4,54.1,36.1,37.4,31.6,23.9,79,47,20,30.21,30.03,5,1,10,0.00
2013-4-7,75.6,56.3,39.2,42.9,34.6,27.1,71,47,19,30.24,30.09,5,0,10,0.00
2013-4-8,79.7,65.5,51.8,55.4,45.3,39.2,84,52,28,30.15,30.03,6,1,10,0.00
2013-4-9,85.8,69.6,53.8,57.4,47.7,43.2,83,50,25,30.18,30.09,5,0,10,0.00
2013-4-10,88.3,72.2,58.5,59.4,50.1,43.1,84,50,23,30.12,29.94,5,0,9,0.00
2013-4-11,81.7,69.9,60.1,61.0,54.4,48.0,85,60,33,29.97,29.77,5,0,10,0.00
2013-4-12,82.2,71.2,58.8,69.0,48.3,31.0,91,49,19,29.83,29.65,5,1,13,0.31
2013-4-13,78.4,62.0,44.8,43.9,33.3,22.7,77,39,14,30.00,29.83,5,0,10,0.00
2013-4-14,77.4,61.3,43.7,47.8,38.0,30.4,80,47,19,30.09,29.97,5,0,10,0.00
2013-4-15,71.1,64.3,58.5,56.5,51.9,46.3,83,65,49,30.18,29.97,5,0,8,0.00
2013-4-16,77.4,66.4,57.6,60.9,53.7,49.6,87,66,39,30.27,30.18,3,0,7,0.00
2013-4-17,86.5,69.8,57.0,64.2,54.1,45.4,90,63,28,30.24,30.09,3,0,10,0.00
2013-4-18,81.1,70.3,62.1,63.5,55.2,47.7,84,62,33,30.15,30.00,3,0,8,0.00
2013-4-19,80.6,68.2,55.4,63.7,59.2,51.4,87,74,45,30.00,29.74,6,1,15,0.31
2013-4-20,66.4,54.6,44.1,51.2,33.5,22.9,87,49,22,30.24,29.88,7,0,13,0.04
2013-4-21,65.3,52.5,38.8,38.4,34.1,31.4,81,52,33,30.42,30.24,6,1,13,0.00
2013-4-22,65.3,52.4,39.9,33.7,28.1,19.1,65,43,19,30.39,30.21,6,1,10,0.00
2013-4-23,66.6,56.3,50.2,46.6,40.8,32.4,78,57,44,30.27,30.12,3,0,8,0.00
2013-4-24,75.4,61.4,50.0,57.1,49.1,45.3,90,67,37,30.15,30.00,5,0,12,0.00
2013-4-25,72.3,61.7,48.7,54.6,39.2,25.2,79,47,21,30.24,30.03,5,1,10,0.00
2013-4-26,75.2,59.6,43.5,40.5,30.5,22.9,62,36,16,30.42,30.24,5,0,10,0.00
2013-4-27,66.4,57.6,53.1,52.9,46.4,40.7,89,68,42,30.36,30.24,0,0,3,0.16
2013-4-28,60.3,56.6,54.5,57.9,54.3,51.9,94,92,89,30.24,30.06,3,0,10,1.65
2013-4-29,70.5,62.5,56.8,65.9,58.5,54.4,96,88,63,30.06,29.94,0,0,6,0.20
2013-4-30,70.5,62.9,57.0,63.0,57.1,52.1,94,82,56,30.15,29.97,3,0,8,0.00
2013-5-1,65.1,59.9,54.7,56.3,53.1,49.9,88,79,64,30.27,30.15,3,0,10,0.00
2013-5-2,63.5,59.7,57.7,60.2,56.0,53.2,93,88,80,30.30,30.21,3,0,14,0.12
2013-5-3,72.0,61.9,54.9,54.8,48.9,37.9,85,64,42,30.21,30.09,7,1,12,0.04
2013-5-4,63.5,56.9,49.8,47.4,42.3,35.1,76,59,46,30.12,30.00,8,2,13,0.00
2013-5-5,60.4,55.8,52.5,58.7,50.0,44.7,94,81,65,30.03,29.85,7,1,15,0.43
2013-5-6,73.6,63.4,55.9,65.3,54.5,44.3,96,76,43,29.88,29.83,6,0,13,1.02
2013-5-7,72.8,59.4,47.3,53.9,46.1,41.9,87,64,35,29.94,29.85,5,0,12,0.04
2013-5-8,76.6,64.0,52.0,61.7,52.3,48.2,91,69,39,30.00,29.91,3,0,8,0.00
2013-5-9,85.3,67.8,53.1,62.4,50.4,43.2,89,59,25,30.09,30.00,3,0,9,0.00
2013-5-10,85.7,70.2,56.3,65.1,53.3,48.5,89,59,29,30.06,29.94,3,0,12,0.00
2013-5-11,84.2,71.0,63.5,65.4,57.0,51.3,81,63,33,29.97,29.83,3,0,10,0.08
2013-5-12,78.1,66.1,56.7,59.7,44.4,23.6,89,53,19,30.03,29.83,6,0,13,0.04
2013-5-13,71.1,58.3,46.4,35.4,28.8,19.7,61,36,17,30.18,30.03,5,0,14,0.00
2013-5-14,74.7,57.9,39.9,41.0,33.5,27.6,77,44,19,30.27,30.09,3,0,12,0.00
2013-5-15,90.3,70.0,53.8,54.7,47.0,37.7,72,47,24,30.09,29.94,2,0,9,0.00
2013-5-16,83.5,72.1,62.2,57.5,52.1,45.9,74,51,28,30.03,29.94,3,0,8,0.00
2013-5-17,66.0,62.9,62.4,57.9,56.3,54.3,80,79,66,30.09,30.00,1,0,8,0.00
2013-5-18,62.4,62.4,62.4,56.2,56.2,56.2,80,80,80,30.15,30.06,3,0,10,0.00
2013-5-19,66.7,62.6,62.4,64.7,56.7,56.2,93,81,80,30.12,30.03,3,0,9,1.30
2013-5-20,79.3,72.0,66.7,73.0,66.2,61.4,96,83,55,30.12,30.00,3,0,9,0.43
2013-5-21,85.1,70.5,66.0,76.0,64.9,55.9,94,83,52,30.06,29.97,7,0,17,0.43
2013-5-22,72.3,68.1,67.8,63.5,63.2,57.0,86,85,61,30.03,29.88,3,0,10,0.16
2013-5-23,77.4,71.0,66.2,69.3,64.3,57.7,93,80,62,29.97,29.83,3,0,10,0.12
2013-5-24,73.0,73.0,73.0,63.9,63.9,63.9,73,73,73,30.03,29.85,6,1,18,0.00
2013-5-28,85.6,77.8,68.9,63.9,55.0,51.8,73,47,32,30.21,30.06,2,0,8,0.00
2013-5-29,84.4,68.4,61.5,63.4,56.6,51.4,84,67,33,30.24,30.15,2,0,7,0.00
2013-6-2,89.2,76.7,68.9,70.8,66.6,55.1,100,73,49,30.03,29.29,5,0,13,1.10
2013-6-3,81.9,73.0,64.9,74.8,67.7,54.9,100,86,40,29.97,29.85,2,0,5,1.56
2013-6-4,84.4,74.6,66.4,70.2,66.1,63.8,100,77,52,30.06,29.94,3,0,9,0.00
2013-6-5,81.5,73.2,69.1,70.0,66.9,63.1,95,81,61,30.09,29.97,3,0,8,0.00
2013-6-6,76.6,69.0,59.7,76.6,68.9,59.7,100,100,95,30.00,29.83,1,0,7,1.22
2013-6-7,78.4,71.5,69.3,78.4,71.1,67.1,100,99,88,29.85,29.62,6,0,15,0.91
2013-6-8,84.6,74.8,68.5,80.2,71.3,66.5,100,90,55,30.09,29.83,3,0,8,0.00
2013-6-9,89.7,74.4,67.6,79.3,66.1,54.1,100,79,33,30.15,30.06,6,0,9,0.00
2013-6-10,82.2,72.4,68.5,76.2,67.7,60.4,95,86,58,30.09,29.91,3,0,10,1.30
2013-6-11,86.2,75.1,67.6,74.2,61.1,46.5,96,67,26,30.00,29.94,3,0,8,0.00
2013-6-12,92.1,75.8,63.5,70.7,60.9,55.8,89,64,32,30.00,29.88,1,0,7,0.00
2013-6-13,93.2,77.1,67.3,69.8,61.6,46.9,85,64,24,29.88,29.68,7,0,24,0.43
2013-6-14,85.8,73.5,62.8,67.2,53.1,39.8,86,55,25,30.03,29.77,5,0,13,0.00
2013-6-15,85.4,70.5,57.7,67.1,56.0,49.4,97,64,35,30.15,30.03,2,0,7,0.00
2013-6-16,86.9,73.8,63.3,65.3,60.5,56.7,86,65,39,30.15,30.03,5,0,8,0.00
2013-6-17,85.8,73.9,68.0,66.9,64.1,61.0,91,73,47,30.06,29.94,6,0,12,0.00
2013-6-18,84.9,74.6,69.1,72.8,67.4,63.0,96,80,50,29.97,29.80,3,0,10,0.04
2013-6-19,85.3,74.3,68.2,69.0,63.5,54.7,95,73,36,30.12,29.88,5,0,8,0.00
2013-6-20,82.9,72.5,64.9,67.6,61.0,55.8,96,70,41,30.21,30.12,3,0,7,0.00
2013-6-21,83.7,70.4,60.8,60.3,56.9,52.1,91,65,37,30.27,30.18,3,0,9,0.00
2013-6-22,83.7,72.0,62.8,65.6,60.9,54.8,85,69,47,30.24,30.12,3,0,9,0.00
2013-6-23,82.0,73.1,66.7,73.7,69.3,65.2,100,89,60,30.21,30.12,2,0,6,0.16
2013-6-24,85.8,73.6,68.4,79.5,70.4,67.0,100,90,59,30.21,30.12,0,0,6,0.08
2013-6-25,92.1,78.1,70.0,77.4,68.7,63.7,100,77,41,30.15,30.03,3,0,10,0.00
2013-6-26,92.3,77.8,69.8,74.6,67.3,58.8,100,73,42,30.06,29.91,3,0,7,0.00
2013-6-27,88.3,76.4,70.2,75.1,70.0,63.9,100,83,49,29.97,29.74,3,0,10,0.75
2013-6-28,91.2,78.5,70.3,82.4,70.3,61.7,100,79,45,29.77,29.62,7,0,20,0.12
2013-6-29,86.0,75.9,70.0,78.3,68.9,61.9,100,81,49,29.74,29.62,2,0,7,0.00
2013-6-30,83.1,74.8,66.9,74.5,69.2,64.7,100,84,56,29.85,29.71,0,0,6,1.77
2013-7-1,79.7,72.9,66.9,75.7,70.0,66.0,100,91,70,30.00,29.83,1,0,7,0.08
2013-7-2,78.6,73.1,71.6,77.4,72.2,68.7,100,97,85,30.15,30.00,2,0,9,0.00
2013-7-3,82.6,75.5,72.7,80.4,74.4,72.0,100,97,80,30.21,30.12,0,0,6,0.00
2013-7-4,88.3,77.6,74.1,83.5,75.4,65.1,100,94,47,30.24,30.18,2,0,8,0.00
2013-7-5,75.4,75.0,74.5,73.7,73.4,73.0,95,95,94,30.24,30.24,0,0,7,0.00
2013-7-6,85.5,76.1,71.2,82.4,73.7,68.7,100,93,58,30.24,30.12,3,0,7,0.00
2013-7-7,87.3,77.7,72.1,81.5,73.8,70.0,100,89,58,30.18,30.06,2,0,8,0.00
2013-7-8,77.0,74.2,72.9,77.0,74.1,72.9,100,99,95,30.18,30.12,0,0,4,0.00
2013-7-9,89.2,82.8,76.5,71.5,69.7,67.6,82,66,52,30.12,30.06,2,0,7,0.00
2013-7-10,89.7,78.4,71.6,76.9,71.3,64.8,100,81,48,30.12,29.97,3,0,8,0.00
2013-7-11,79.9,74.7,71.6,77.3,73.4,70.3,100,96,88,29.97,29.88,0,0,5,0.04
2013-7-12,82.0,74.9,70.9,78.8,70.6,63.4,100,88,61,30.00,29.88,3,0,10,0.00
2013-7-13,81.1,75.9,70.9,72.3,68.6,64.0,92,79,63,30.12,30.00,3,0,8,1.61
2013-7-14,86.2,78.5,73.4,79.7,71.3,63.7,100,81,53,30.27,30.09,5,0,10,0.39
2013-7-15,89.8,78.1,72.9,78.2,69.5,63.0,94,78,43,30.33,30.24,2,0,8,0.00
2013-7-16,93.4,80.3,70.3,78.6,68.4,60.2,100,71,34,30.30,30.21,3,0,7,0.00
2013-7-17,90.3,75.8,70.9,76.0,71.0,62.0,100,86,52,30.24,30.12,7,0,18,1.50
2013-7-18,90.1,78.8,69.3,82.8,71.8,68.3,100,82,50,30.18,30.06,0,0,7,0.00
2013-7-19,90.5,80.2,73.8,77.8,71.1,64.8,100,76,47,30.12,30.00,2,0,7,0.00
2013-7-20,86.0,77.3,73.6,74.3,71.9,68.5,95,85,58,30.06,29.94,2,0,7,0.08
2013-7-21,88.0,77.1,72.0,77.4,71.2,64.3,100,84,53,30.03,29.91,5,0,13,0.31
2013-7-22,83.7,76.0,71.4,76.5,72.3,68.9,100,89,62,30.00,29.85,2,0,9,0.00
2013-7-23,90.9,79.6,73.4,74.6,69.7,63.0,96,75,43,29.88,29.77,3,0,10,0.00
2013-7-24,93.2,78.6,70.1,77.4,68.4,61.2,100,75,35,29.88,29.77,3,0,8,0.16
2013-7-25,84.7,74.3,68.9,70.2,66.2,60.9,100,78,47,30.03,29.83,5,0,8,0.00
2013-7-26,87.6,74.5,66.0,71.9,65.2,59.8,100,76,43,30.12,30.03,2,0,7,0.00
2013-7-27,81.1,72.1,69.4,74.4,69.6,65.8,100,92,69,30.06,29.94,2,0,8,0.91
2013-7-28,86.5,76.5,69.6,79.2,69.9,64.5,100,83,50,30.00,29.91,3,0,8,0.00
2013-7-29,87.3,76.4,70.3,72.2,66.4,59.7,100,74,40,30.15,30.00,3,0,7,0.00
2013-7-30,86.0,74.6,66.2,69.4,63.6,57.3,100,72,38,30.21,30.15,2,0,7,0.00
2013-7-31,82.2,73.9,69.6,73.8,68.2,64.5,100,84,56,30.15,30.00,2,0,8,0.12
2013-8-1,87.6,74.6,70.0,79.5,71.4,64.8,100,91,52,30.00,29.88,0,0,3,0.12
2013-8-2,88.2,77.0,68.4,76.1,68.5,63.0,100,78,45,30.03,29.94,3,0,7,0.00
2013-8-3,90.7,79.2,72.5,80.1,69.8,63.2,100,76,43,30.03,29.94,2,0,9,0.00
2013-8-4,87.4,76.4,68.5,74.3,64.2,55.9,100,70,38,30.03,29.94,5,0,12,0.00
2013-8-5,85.6,73.9,66.7,69.1,62.9,58.6,96,71,44,30.09,29.97,2,0,7,0.00
2013-8-6,72.3,69.8,67.3,70.9,66.1,58.5,100,89,67,30.09,29.97,0,0,6,0.43
2013-8-7,77.5,71.6,68.9,75.0,70.0,67.1,100,95,74,30.09,30.03,0,0,0,0.00
2013-8-8,84.0,75.7,71.6,80.5,71.8,68.2,100,88,70,30.09,30.00,0,0,0,0.04
2013-8-9,90.7,77.9,72.5,72.7,71.0,67.4,100,81,48,30.09,30.00,3,0,9,0.00
2013-8-10,94.5,79.6,73.0,84.1,71.6,63.2,100,80,44,30.12,30.03,3,0,12,0.04
2013-8-11,94.1,80.1,71.1,78.3,70.0,64.6,100,75,41,30.12,30.03,3,0,8,0.00
2013-8-12,93.9,80.0,71.6,78.0,68.9,63.7,100,72,37,30.06,29.94,0,0,3,0.00
2013-8-13,91.7,78.4,71.0,75.9,68.8,63.2,100,75,44,29.97,29.80,2,0,9,0.75
2013-8-14,75.4,71.1,63.7,72.5,62.5,54.0,100,77,48,30.09,29.85,2,0,8,0.00
2013-8-15,76.5,66.5,60.1,60.6,55.3,49.1,91,70,40,30.15,30.06,2,0,9,0.00
2013-8-16,67.1,63.8,60.4,60.4,56.3,53.2,85,77,63,30.15,30.09,0,0,5,0.04
2013-8-17,67.1,64.0,61.3,67.1,63.0,57.4,100,97,81,30.18,30.12,0,0,4,0.55
2013-8-18,84.4,72.8,65.7,76.5,67.5,63.3,100,86,50,30.21,30.12,0,0,4,0.00
2013-8-19,75.7,71.6,68.4,74.8,70.0,66.6,100,95,80,30.18,30.09,0,0,0,0.59
2013-8-20,80.4,72.8,65.5,75.4,69.5,65.5,100,90,66,30.21,30.12,0,0,0,0.00
2013-8-21,87.4,75.1,71.8,74.6,72.5,66.7,100,93,54,30.21,30.12,0,0,3,0.00
2013-8-22,91.4,81.7,70.9,74.5,67.8,63.3,100,65,41,30.15,30.00,0,0,3,0.00
2013-8-23,91.4,77.0,69.4,80.5,67.8,59.9,100,76,35,30.09,29.97,3,0,15,0.00
2013-8-24,84.4,72.7,65.5,66.2,58.0,50.6,85,63,35,30.30,30.09,5,0,9,0.00
2013-8-25,83.2,73.0,62.8,57.0,54.0,50.1,81,54,35,30.33,30.27,0,0,0,0.00
2013-8-26,84.2,68.4,56.8,66.3,57.9,54.5,97,73,38,30.33,30.12,0,0,7,0.00
2013-8-27,90.9,75.5,63.9,70.8,63.8,59.4,94,71,36,30.15,30.00,0,0,0,0.00
2013-8-28,88.3,78.0,70.5,75.6,68.4,65.1,95,75,47,30.03,29.94,0,0,0,0.00
2013-8-29,95.4,82.2,75.0,73.7,68.2,62.9,89,65,35,30.00,29.88,0,0,3,0.24
2013-8-30,89.4,77.5,70.5,71.4,63.6,54.8,95,66,34,30.06,29.94,0,0,4,0.00
2013-8-31,90.3,77.6,68.5,77.0,68.2,63.8,100,75,46,29.97,29.88,2,0,8,0.00
2013-9-1,92.8,78.5,70.9,80.6,70.3,60.4,100,79,45,29.91,29.80,3,0,13,0.59
2013-9-2,88.0,77.7,71.6,82.7,73.4,68.3,100,88,55,29.94,29.83,0,0,0,0.71
2013-9-3,92.5,79.9,72.7,80.8,70.5,61.1,100,77,42,29.97,29.83,0,0,0,0.00
2013-9-4,89.4,76.8,66.7,67.2,60.7,56.3,83,60,34,30.09,29.97,0,0,0,0.24
2013-9-5,91.2,76.0,66.4,70.7,62.9,57.0,100,68,35,30.12,30.06,0,0,0,0.00
2013-9-6,87.6,74.0,66.0,62.7,56.0,51.5,83,56,33,30.18,30.09,2,0,13,0.00
2013-9-7,87.1,72.0,61.2,66.5,59.7,55.3,93,69,36,30.15,29.97,0,0,0,0.00
2013-9-8,90.9,75.9,66.2,75.4,62.4,55.3,100,68,33,30.00,29.91,0,0,0,0.00
2013-9-9,92.7,76.7,66.2,72.1,62.6,56.7,97,66,32,30.15,29.97,0,0,0,0.00
2013-9-10,92.6,76.6,66.4,76.6,64.2,58.9,100,70,35,30.24,30.12,0,0,0,0.00
2013-9-11,92.3,76.8,66.9,76.1,64.5,60.4,100,69,35,30.21,30.09,0,0,0,0.00
2013-9-12,93.9,80.1,70.0,66.3,64.2,60.6,86,61,38,30.09,29.85,0,0,0,0.00
2013-9-13,90.3,76.9,69.1,67.5,57.7,44.0,90,56,28,29.91,29.77,5,0,12,0.00
2013-9-14,79.5,67.8,59.0,54.2,47.8,42.7,78,50,36,30.12,29.91,5,0,12,0.00
2013-9-15,82.9,68.6,57.4,61.4,57.3,53.1,87,69,44,30.21,30.09,3,0,8,0.00
2013-9-16,88.9,76.9,66.9,72.4,62.7,53.3,95,67,31,30.15,30.03,3,0,9,0.00
2013-9-17,80.1,70.3,61.0,57.6,50.6,46.6,63,51,35,30.30,30.15,5,0,12,0.00
2013-9-18,77.8,64.2,56.5,52.5,49.5,47.1,80,61,36,30.30,30.15,3,0,10,0.00
2013-9-19,81.0,66.7,56.8,60.2,55.3,52.1,88,69,38,30.18,30.09,0,0,6,0.00
2013-9-20,87.1,72.1,62.6,65.7,61.6,58.6,92,72,41,30.09,29.91,0,0,7,0.00
2013-9-21,77.4,71.3,65.7,72.8,66.7,62.5,100,86,62,29.94,29.68,2,0,9,1.85
2013-9-22,80.5,68.3,60.3,68.4,58.0,48.0,100,74,37,29.91,29.68,5,1,10,0.55
2013-9-23,76.8,65.2,57.7,58.9,54.2,50.8,89,70,41,30.06,29.91,2,0,8,0.00
2013-9-24,79.5,66.1,57.0,63.0,56.3,51.9,100,74,40,30.09,29.94,2,0,6,0.00
2013-9-25,70.5,64.8,60.6,66.9,61.5,56.7,100,90,66,29.94,29.85,2,0,6,0.20
2013-9-26,78.8,67.3,59.7,66.9,57.1,48.7,100,74,39,30.03,29.88,5,0,12,0.00
2013-9-27,78.6,65.1,56.8,58.9,51.4,48.1,87,64,36,30.18,30.03,3,0,10,0.00
2013-9-28,75.9,62.6,55.6,57.7,50.7,46.3,90,68,38,30.24,30.15,5,0,13,0.00
2013-9-29,73.8,63.2,55.6,57.9,51.9,48.0,85,68,44,30.15,30.03,3,0,8,0.00
2013-9-30,77.9,63.2,53.3,63.3,53.7,49.4,97,75,37,30.09,30.00,2,0,7,0.00
2013-10-1,84.7,66.4,54.3,67.3,56.1,52.8,100,73,36,30.12,30.03,2,0,8,0.00
2013-10-2,86.5,69.3,57.7,69.4,58.6,53.5,100,73,35,30.15,30.06,2,0,7,0.00
2013-10-3,84.9,70.6,61.5,71.8,60.2,54.9,100,74,38,30.12,30.06,2,0,9,0.00
2013-10-4,88.5,71.9,62.2,72.2,61.5,56.2,100,74,35,30.15,30.06,2,0,6,0.00
2013-10-5,89.2,72.7,61.7,74.7,62.2,57.2,100,74,35,30.12,30.00,0,0,0,0.00
2013-10-6,86.9,71.9,61.2,71.2,62.1,58.6,100,74,41,30.06,29.88,0,0,6,0.00
2013-10-7,77.4,72.1,66.2,76.1,68.5,51.9,100,89,60,29.97,29.83,2,0,8,0.55
2013-10-8,66.2,61.9,59.7,51.9,45.1,41.6,60,54,51,30.18,29.97,5,1,14,0.00
2013-10-9,73.9,62.4,52.9,49.6,44.8,40.3,69,53,40,30.21,30.09,5,1,12,0.00
2013-10-10,70.2,66.7,60.3,58.6,54.5,44.2,77,65,55,30.09,29.97,3,0,10,0.00
2013-10-11,81.3,69.0,61.9,62.3,58.4,52.9,88,71,40,30.00,29.91,5,0,10,0.00
2013-10-12,75.6,66.8,58.6,66.3,58.9,56.2,100,77,54,30.06,29.94,2,0,6,0.00
2013-10-13,69.6,66.4,64.0,63.7,62.0,59.9,95,86,73,30.21,30.06,2,0,9,0.00
2013-10-14,68.5,64.8,62.1,65.7,61.3,57.2,100,89,76,30.24,30.15,3,0,10,0.04
2013-10-15,75.7,65.1,58.6,58.0,53.2,46.6,90,68,37,30.18,30.03,3,0,10,0.00
2013-10-16,77.2,65.0,55.6,63.9,57.2,52.5,96,78,46,30.06,29.94,0,0,3,0.00
2013-10-17,72.1,66.9,62.2,68.6,64.2,60.2,100,92,71,29.97,29.85,1,0,8,0.00
2013-10-18,68.0,64.0,57.7,67.8,58.0,51.4,100,83,56,30.03,29.88,2,0,7,0.00
2013-10-19,71.0,62.7,57.2,70.9,58.6,53.4,100,87,61,29.97,29.85,1,0,7,0.04
2013-10-20,66.6,56.2,48.2,53.2,44.9,39.8,94,69,39,30.09,29.91,3,0,9,0.00
2013-10-21,70.0,55.7,43.0,53.3,46.5,40.5,95,74,42,30.15,30.00,2,0,5,0.00
2013-10-22,67.5,60.7,55.6,61.2,57.0,51.6,96,88,68,30.03,29.80,1,0,7,0.00
2013-10-23,70.0,59.4,44.6,59.9,45.3,27.2,100,66,28,30.03,29.71,6,1,17,0.00
2013-10-24,61.0,48.3,36.5,39.8,33.5,27.3,82,58,39,30.18,30.03,5,0,9,0.00
2013-10-25,54.1,47.5,37.8,37.2,30.7,24.0,66,53,41,30.36,30.15,5,0,13,0.00
2013-10-26,58.8,42.7,29.5,36.0,28.5,22.1,86,59,35,30.36,30.09,3,0,9,0.00
2013-10-27,68.0,54.0,40.1,46.3,38.6,31.0,84,58,39,30.12,30.03,3,0,9,0.00
2013-10-28,66.0,55.2,47.1,61.0,50.6,42.0,96,85,62,30.24,30.09,0,0,0,0.00
2013-10-29,72.3,59.2,49.6,63.3,51.3,48.0,100,78,47,30.33,30.21,2,0,6,0.00
2013-10-30,76.6,61.9,50.9,64.8,52.4,48.6,100,74,42,30.27,30.15,3,0,9,0.00
2013-10-31,72.7,64.3,56.1,63.5,55.6,52.6,100,75,50,30.18,29.91,2,0,8,0.00
2013-11-1,70.3,66.2,59.7,66.4,62.7,59.7,100,89,76,29.91,29.68,3,0,10,0.43
2013-11-2,70.5,58.9,47.7,64.5,52.2,40.8,100,82,38,29.97,29.71,7,0,21,0.04
2013-11-3,61.9,51.5,41.4,44.0,36.6,31.0,88,59,37,30.33,29.97,6,0,13,0.00
2013-11-4,59.4,47.7,38.5,35.0,31.3,28.9,76,55,34,30.50,30.30,5,0,9,0.00
2013-11-5,58.3,49.2,38.8,43.8,35.7,26.9,69,60,51,30.50,30.39,3,0,10,0.00
2013-11-6,70.3,58.9,48.7,50.9,47.7,43.5,88,68,47,30.39,30.09,3,0,8,0.00
2013-11-7,70.0,57.7,44.4,62.6,46.9,25.4,97,71,40,30.12,29.94,7,1,16,0.00
2013-11-8,60.3,46.9,35.8,31.3,25.8,21.8,61,45,29,30.30,30.12,5,0,13,0.00
2013-11-9,61.5,45.6,30.4,36.1,28.7,22.6,84,54,32,30.36,30.18,2,0,9,0.00
2013-11-10,72.4,55.3,41.4,40.3,32.8,29.0,67,44,27,30.21,30.09,3,0,10,0.00
2013-11-11,60.8,50.0,35.2,32.5,26.6,21.1,62,41,29,30.33,30.12,3,0,9,0.00
2013-11-12,53.8,53.8,53.8,27.4,27.4,27.4,36,36,36,30.42,30.03,6,1,17,0.08
2013-11-13,53.8,50.6,38.5,27.4,24.5,14.6,39,36,33,30.50,30.39,5,0,10,0.00
2013-11-14,54.9,41.0,32.5,44.2,19.8,17.7,83,44,30,30.33,30.09,0,0,0,0.00
2013-11-15,60.1,46.9,30.4,47.4,34.3,17.5,89,62,42,30.33,30.15,3,0,7,0.00
2013-11-16,64.9,55.7,50.4,59.9,53.6,47.4,100,93,74,30.24,30.15,0,0,4,0.00
2013-11-17,71.4,61.2,51.8,69.5,59.2,51.8,100,94,67,30.18,29.91,2,0,9,0.04
2013-11-18,80.2,68.0,54.1,71.8,54.9,30.6,100,69,37,29.97,29.83,6,1,13,0.08
2013-11-19,54.0,53.6,53.6,30.8,30.4,30.4,41,41,41,30.24,29.97,3,0,12,0.00
2013-11-20,53.6,53.6,53.6,30.4,30.4,30.4,41,41,41,30.39,30.24,5,0,10,0.00
2013-11-21,53.6,53.6,53.6,30.4,30.4,30.4,41,41,41,30.44,30.36,2,0,8,0.00
2013-11-22,68.7,57.3,53.6,60.2,40.4,30.4,93,56,41,30.36,30.09,2,0,9,0.00
2013-11-23,62.2,56.9,42.4,60.5,48.2,23.6,100,75,45,30.18,30.03,3,0,8,0.00
2013-11-24,42.8,35.1,27.0,23.4,15.3,7.9,48,44,41,30.50,30.15,7,1,15,0.00
2013-11-25,43.7,33.1,20.5,21.3,11.5,4.2,63,42,31,30.53,30.33,2,0,7,0.00
2013-11-26,51.4,40.0,33.4,51.4,30.7,10.7,100,74,31,30.30,29.59,6,0,13,1.46
2013-11-27,46.9,40.6,28.0,46.9,34.8,14.5,100,82,52,30.15,29.50,7,1,16,0.31
2013-11-28,46.0,32.0,21.2,23.9,17.8,13.1,76,57,35,30.89,30.18,2,0,7,0.00
2013-11-29,54.0,39.0,24.4,32.1,22.3,18.1,85,55,31,31.21,28.85,3,0,10,0.00
2013-11-30,49.5,37.6,30.0,27.3,21.7,17.8,64,53,41,31.27,28.82,3,0,10,0.00
2013-12-1,58.3,45.7,30.4,35.5,29.8,21.2,76,56,41,30.92,30.03,1,0,7,0.00
2013-12-2,53.4,49.5,48.6,36.3,34.5,32.0,62,56,44,29.97,29.83,0,0,17,0.00
2013-12-3,62.6,54.8,43.9,49.7,41.8,34.4,77,62,52,30.18,29.85,0,0,17,0.00
2013-12-4,62.6,56.7,54.0,58.9,51.6,37.7,100,83,52,30.21,30.06,0,0,17,0.00
2013-12-5,66.6,63.7,60.1,66.6,63.6,58.9,100,100,96,30.30,30.09,0,0,0,0.08
2013-12-6,78.3,70.3,63.1,67.5,62.5,54.8,100,79,48,30.15,30.00,0,0,0,0.00
2013-12-7,69.6,56.2,47.5,67.1,50.8,35.5,100,83,63,30.59,30.00,0,0,0,0.08
2013-12-8,47.5,39.8,36.3,36.8,34.9,31.2,100,84,61,31.01,30.27,0,0,0,0.12
2013-12-9,48.7,42.4,36.5,48.7,42.4,36.5,100,100,100,31.27,28.76,0,0,0,0.24
2013-12-10,54.5,47.7,31.2,54.5,44.7,22.6,100,90,60,30.86,29.94,120,14,120,0.24
2013-12-11,53.4,36.9,25.5,35.6,26.0,22.2,93,67,38,31.27,28.91,1,0,5,0.00
2013-12-12,51.1,37.2,28.2,29.2,23.0,17.1,82,58,36,31.15,28.79,5,0,12,0.00
2013-12-13,55.0,38.1,23.7,32.8,24.0,16.1,76,59,38,31.27,28.82,3,0,10,0.00
2013-12-14,50.9,42.9,39.7,47.8,37.2,29.1,100,81,64,31.24,28.76,6,0,13,0.75
2013-12-15,58.6,46.0,33.1,55.2,38.2,23.7,100,78,46,31.21,28.79,5,0,12,0.04
2013-12-16,60.3,42.6,29.5,42.7,30.5,23.1,92,65,37,31.18,28.76,3,0,8,0.00
2013-12-17,64.0,49.4,36.7,40.0,32.8,27.8,72,54,36,31.27,28.79,3,1,10,0.00
2013-12-18,56.1,43.3,32.0,30.7,22.2,16.4,61,44,33,31.15,28.79,5,0,10,0.00
2013-12-19,65.3,44.9,29.5,36.0,25.9,19.1,71,50,30,30.83,30.36,3,0,8,0.00
2013-12-20,65.8,52.4,41.0,51.3,39.9,25.3,85,63,48,30.92,30.27,3,0,8,0.00
2013-12-21,72.1,60.4,47.4,62.3,54.6,45.1,100,82,57,31.07,30.24,3,0,13,0.00
2013-12-22,74.3,67.9,64.0,74.3,65.3,59.2,100,92,67,30.53,30.15,5,1,15,0.98
2013-12-23,65.3,61.5,48.0,65.3,61.4,43.1,100,99,83,30.56,30.12,2,0,9,2.05
2013-12-24,51.4,42.6,31.3,42.6,26.4,12.4,82,53,40,31.27,30.36,6,1,15,0.00
2013-12-25,41.5,31.6,23.4,21.0,14.0,9.8,60,48,36,31.27,28.73,3,0,7,0.00
2013-12-26,55.6,41.6,34.0,28.9,23.2,18.4,61,49,35,31.27,28.73,3,0,8,0.00
2013-12-27,54.0,39.4,29.3,27.6,22.0,18.4,66,51,36,30.99,29.86,2,0,8,0.00
2013-12-28,55.9,40.9,25.9,36.4,26.4,18.8,82,58,38,30.93,29.64,2,0,5,0.00
2013-12-29,53.1,46.5,41.4,53.1,43.9,32.3,100,91,57,30.55,29.25,3,0,8,1.38
2013-12-30,54.1,44.6,35.1,53.9,40.7,35.1,100,88,62,30.79,29.49,0,0,5,0.00
2013-12-31,52.0,43.3,34.0,43.5,34.2,25.9,96,72,44,30.91,29.87,3,0,9,0.00
2014-1-1,50.5,40.1,31.5,33.3,28.9,25.3,84,65,47,30.91,29.75,0,0,5,0.00
2014-1-2,49.3,45.1,37.9,46.7,40.8,27.2,95,85,64,30.91,29.49,6,0,15,0.20